Time;durP1;ratioP1;P1;durP2;ratioP2;P2;SDS_P1;SDS_P2;PMS_P1;PMS_P2;Temp;Humidity;BMP_temperature;BMP_pressure;BME280_temperature;BME280_humidity;BME280_pressure;Samples;Min_cycle;Max_cycle;Signal;HPM_P1;HPM_P2
2022/11/26 00:02:22;;;;;;;;;;;8.00;98.00;;;;;;5066738;28;19919;-72
2022/11/26 00:04:48;;;;;;;;;;;8.00;98.00;;;;;;5066873;28;19999;-71
2022/11/26 00:07:16;;;;;;;;;;;8.00;98.00;;;;;;5066477;28;20015;-72
2022/11/26 00:09:41;;;;;;;;;;;8.00;98.00;;;;;;5062245;28;19959;-72
2022/11/26 00:12:13;;;;;;;;;;;8.00;98.00;;;;;;5067387;28;19951;-71
2022/11/26 00:14:38;;;;;;;;;;;8.00;98.00;;;;;;5067152;28;19919;-72
2022/11/26 00:17:04;;;;;;;;;;;8.00;98.00;;;;;;5081730;28;19919;-72
2022/11/26 00:19:29;;;;;;;;;;;8.00;98.00;;;;;;5085951;28;19958;-72
2022/11/26 00:21:55;;;;;;;;;;;8.00;98.00;;;;;;5085390;28;19919;-72
2022/11/26 00:24:27;;;;;;;;;;;8.00;98.00;;;;;;5062878;28;20498;-72
2022/11/26 00:26:54;;;;;;;;;;;8.00;98.00;;;;;;5087202;28;19912;-72
2022/11/26 00:29:19;;;;;;;;;;;8.00;98.00;;;;;;5086621;28;19916;-72
2022/11/26 00:31:45;;;;;;;;;;;8.00;98.00;;;;;;5066777;28;20383;-72
2022/11/26 00:34:10;;;;;;;;;;;7.90;98.00;;;;;;5066439;28;19918;-72
2022/11/26 00:36:36;;;;;;;;;;;7.90;98.00;;;;;;5066111;28;19960;-72
2022/11/26 00:39:01;;;;;;;;;;;7.90;98.00;;;;;;5053794;28;20379;-72
2022/11/26 00:41:30;;;;;;;;;;;7.90;98.00;;;;;;5046582;28;20312;-73
2022/11/26 00:43:56;;;;;;;;;;;8.00;98.10;;;;;;5058803;28;19920;-73
2022/11/26 00:46:22;;;;;;;;;;;7.90;98.00;;;;;;5065189;28;20316;-73
2022/11/26 00:48:48;;;;;;;;;;;7.90;98.00;;;;;;5067122;28;19913;-73
2022/11/26 00:51:18;;;;;;;;;;;7.90;98.00;;;;;;5065667;28;19923;-73
2022/11/26 00:53:44;;;;;;;;;;;7.90;97.90;;;;;;5065648;28;20273;-73
2022/11/26 00:56:17;;;;;;;;;;;7.90;97.90;;;;;;5081714;28;19915;-73
2022/11/26 00:58:43;;;;;;;;;;;7.90;97.90;;;;;;5086099;28;20548;-72
2022/11/26 01:01:10;;;;;;;;;;;7.90;97.90;;;;;;5076588;28;19912;-72
2022/11/26 01:03:35;;;;;;;;;;;7.90;98.00;;;;;;5086274;28;19916;-71
2022/11/26 01:06:01;;;;;;;;;;;7.90;98.00;;;;;;5086377;28;20521;-72
2022/11/26 01:08:29;;;;;;;;;;;7.90;98.00;;;;;;5078397;28;19989;-72
2022/11/26 01:10:55;;;;;;;;;;;7.90;98.00;;;;;;5069493;28;19966;-71
2022/11/26 01:13:20;;;;;;;;;;;7.90;98.00;;;;;;5070098;28;19963;-71
2022/11/26 01:15:46;;;;;;;;;;;7.90;98.00;;;;;;5080771;28;19916;-72
2022/11/26 01:18:14;;;;;;;;;;;7.90;97.90;;;;;;5090290;28;20335;-72
2022/11/26 01:20:39;;;;;;;;;;;7.90;97.90;;;;;;5089834;28;19947;-71
2022/11/26 01:23:05;;;;;;;;;;;7.90;98.00;;;;;;5085967;28;20372;-72
2022/11/26 01:25:30;;;;;;;;;;;7.90;97.90;;;;;;5069490;28;19912;-72
2022/11/26 01:27:56;;;;;;;;;;;7.90;97.90;;;;;;5089986;28;19989;-71
2022/11/26 01:30:23;;;;;;;;;;;7.90;98.00;;;;;;5079767;28;19920;-72
2022/11/26 01:32:49;;;;;;;;;;;7.90;97.90;;;;;;5080767;28;19924;-72
2022/11/26 01:35:15;;;;;;;;;;;7.90;97.90;;;;;;5089292;28;19912;-71
2022/11/26 01:37:41;;;;;;;;;;;7.90;97.90;;;;;;5088151;28;20407;-72
2022/11/26 01:40:15;;;;;;;;;;;7.90;97.90;;;;;;5069017;28;19913;-72
2022/11/26 01:42:42;;;;;;;;;;;7.90;98.20;;;;;;5069453;28;20054;-71
2022/11/26 01:45:18;;;;;;;;;;;7.90;98.20;;;;;;5069527;28;19956;-71
2022/11/26 01:47:47;;;;;;;;;;;7.90;98.20;;;;;;5069337;28;19913;-72
2022/11/26 01:50:28;;;;;;;;;;;7.90;97.90;;;;;;5069739;28;20589;-72
2022/11/26 01:52:55;;;;;;;;;;;7.90;97.90;;;;;;5069313;28;19946;-72
2022/11/26 01:55:20;;;;;;;;;;;7.90;97.90;;;;;;5077991;28;19912;-72
2022/11/26 01:57:46;;;;;;;;;;;7.90;97.90;;;;;;5089431;28;19916;-71
2022/11/26 02:00:11;;;;;;;;;;;7.90;97.90;;;;;;5082206;28;19999;-72
2022/11/26 02:02:37;;;;;;;;;;;7.90;97.90;;;;;;5069082;28;19927;-71
2022/11/26 02:05:19;;;;;;;;;;;7.90;97.90;;;;;;5069304;28;19923;-72
2022/11/26 02:07:45;;;;;;;;;;;7.90;97.90;;;;;;5066715;28;20372;-72
2022/11/26 02:10:11;;;;;;;;;;;7.90;97.90;;;;;;5062909;28;19916;-72
2022/11/26 02:12:36;;;;;;;;;;;7.90;97.90;;;;;;5068861;28;19966;-72
2022/11/26 02:15:02;;;;;;;;;;;7.90;97.90;;;;;;5068735;28;19916;-72
2022/11/26 02:17:31;;;;;;;;;;;7.90;97.90;;;;;;5069065;28;19913;-72
2022/11/26 02:19:56;;;;;;;;;;;7.90;97.90;;;;;;5067778;28;19934;-71
2022/11/26 02:22:37;;;;;;;;;;;7.90;97.90;;;;;;5085206;28;19916;-72
2022/11/26 02:25:20;;;;;;;;;;;7.90;98.00;;;;;;5064842;28;19957;-71
2022/11/26 02:28:01;;;;;;;;;;;7.90;98.00;;;;;;5088863;28;19962;-72
2022/11/26 02:30:28;;;;;;;;;;;7.80;98.00;;;;;;5079118;28;19941;-72
2022/11/26 02:32:59;;;;;;;;;;;7.80;98.00;;;;;;5068469;28;19978;-72
2022/11/26 02:35:44;;;;;;;;;;;7.80;98.00;;;;;;5075810;28;19923;-72
2022/11/26 02:38:16;;;;;;;;;;;7.80;98.00;;;;;;5080456;28;19913;-72
2022/11/26 02:40:41;;;;;;;;;;;7.80;98.00;;;;;;5067584;28;20034;-72
2022/11/26 02:43:06;;;;;;;;;;;7.80;98.00;;;;;;5068118;28;19999;-72
2022/11/26 02:45:35;;;;;;;;;;;7.80;98.10;;;;;;5068343;28;19923;-72
2022/11/26 02:48:02;;;;;;;;;;;7.80;98.10;;;;;;5068219;28;19913;-72
2022/11/26 02:50:27;;;;;;;;;;;7.80;98.10;;;;;;5067986;28;20334;-71
2022/11/26 02:52:55;;;;;;;;;;;7.80;98.10;;;;;;5069332;28;19923;-73
2022/11/26 02:55:23;;;;;;;;;;;7.80;98.10;;;;;;5076175;28;20494;-72
2022/11/26 02:57:50;;;;;;;;;;;7.70;98.00;;;;;;5088333;28;19912;-72
2022/11/26 03:00:16;;;;;;;;;;;7.70;98.00;;;;;;5080232;28;19916;-72
2022/11/26 03:03:00;;;;;;;;;;;7.70;98.00;;;;;;5067966;28;20018;-72
2022/11/26 03:05:27;;;;;;;;;;;7.70;98.00;;;;;;5061924;28;19923;-72
2022/11/26 03:07:53;;;;;;;;;;;7.70;98.10;;;;;;5068079;28;19923;-72
2022/11/26 03:10:24;;;;;;;;;;;7.70;98.10;;;;;;5067395;28;19916;-72
2022/11/26 03:12:50;;;;;;;;;;;7.70;98.10;;;;;;5067896;28;20376;-72
2022/11/26 03:15:15;;;;;;;;;;;7.60;98.00;;;;;;5067364;28;19912;-72
2022/11/26 03:17:41;;;;;;;;;;;7.60;98.00;;;;;;5067484;28;19912;-72
2022/11/26 03:20:07;;;;;;;;;;;7.60;98.00;;;;;;5067414;28;19912;-72
2022/11/26 03:22:32;;;;;;;;;;;7.60;98.00;;;;;;5067419;28;20595;-72
2022/11/26 03:24:58;;;;;;;;;;;7.60;98.00;;;;;;5078808;28;19920;-72
2022/11/26 03:27:23;;;;;;;;;;;7.50;98.00;;;;;;5086819;28;19942;-72
2022/11/26 03:29:49;;;;;;;;;;;7.60;98.00;;;;;;5083280;28;19916;-72
2022/11/26 03:32:14;;;;;;;;;;;7.50;98.00;;;;;;5066416;28;19913;-72
2022/11/26 03:34:41;;;;;;;;;;;7.50;98.00;;;;;;5067217;28;19912;-72
2022/11/26 03:37:07;;;;;;;;;;;7.50;98.00;;;;;;5067304;28;19912;-71
2022/11/26 03:39:33;;;;;;;;;;;7.50;97.90;;;;;;5067199;28;19924;-72
2022/11/26 03:41:58;;;;;;;;;;;7.50;98.00;;;;;;5066951;28;19916;-72
2022/11/26 03:44:24;;;;;;;;;;;7.50;97.90;;;;;;5067304;28;20008;-72
2022/11/26 03:46:49;;;;;;;;;;;7.40;97.90;;;;;;5067095;28;19908;-72
2022/11/26 03:49:16;;;;;;;;;;;7.40;97.90;;;;;;5070064;28;19920;-71
2022/11/26 03:51:41;;;;;;;;;;;7.40;97.90;;;;;;5087141;28;19934;-72
2022/11/26 03:54:07;;;;;;;;;;;7.40;97.90;;;;;;5065993;28;19909;-72
2022/11/26 03:56:32;;;;;;;;;;;7.40;98.00;;;;;;5084662;28;20504;-71
2022/11/26 03:58:58;;;;;;;;;;;7.40;98.00;;;;;;5087552;28;19912;-72
2022/11/26 04:01:24;;;;;;;;;;;7.40;97.90;;;;;;5068876;28;20429;-72
2022/11/26 04:03:49;;;;;;;;;;;7.40;97.90;;;;;;5066988;28;19927;-72
2022/11/26 04:06:15;;;;;;;;;;;7.40;97.90;;;;;;5066457;28;19913;-72
2022/11/26 04:08:40;;;;;;;;;;;7.30;97.90;;;;;;5066115;28;19966;-71
2022/11/26 04:11:07;;;;;;;;;;;7.30;97.90;;;;;;5066638;28;19920;-72
2022/11/26 04:13:32;;;;;;;;;;;7.30;97.90;;;;;;5067083;28;19917;-72
2022/11/26 04:15:58;;;;;;;;;;;7.30;97.90;;;;;;5067018;28;19908;-72
2022/11/26 04:18:23;;;;;;;;;;;7.30;97.90;;;;;;5067264;28;19920;-72
2022/11/26 04:20:49;;;;;;;;;;;7.30;97.90;;;;;;5067576;28;19921;-72
2022/11/26 04:23:14;;;;;;;;;;;7.30;97.90;;;;;;5066759;28;20257;-72
2022/11/26 04:25:39;;;;;;;;;;;7.30;97.90;;;;;;5078185;28;19919;-72
2022/11/26 04:28:05;;;;;;;;;;;7.30;97.90;;;;;;5087241;28;20571;-71
2022/11/26 04:30:30;;;;;;;;;;;7.30;97.80;;;;;;5076765;28;19924;-71
2022/11/26 04:32:56;;;;;;;;;;;7.30;97.80;;;;;;5066404;28;20016;-72
2022/11/26 04:35:21;;;;;;;;;;;7.30;97.90;;;;;;5066911;28;19947;-72
2022/11/26 04:37:47;;;;;;;;;;;7.30;97.90;;;;;;5065272;28;19937;-72
2022/11/26 04:40:13;;;;;;;;;;;7.20;97.80;;;;;;5066616;28;19948;-72
2022/11/26 04:42:38;;;;;;;;;;;7.20;97.80;;;;;;5100223;28;19916;-72
2022/11/26 04:45:04;;;;;;;;;;;7.20;97.90;;;;;;5070762;28;20381;-72
2022/11/26 04:47:29;;;;;;;;;;;7.20;97.90;;;;;;5070723;28;19944;-72
2022/11/26 04:49:55;;;;;;;;;;;7.20;97.80;;;;;;5070377;28;19923;-72
2022/11/26 04:52:20;;;;;;;;;;;7.20;97.90;;;;;;5070065;28;19946;-72
2022/11/26 04:54:46;;;;;;;;;;;7.20;97.80;;;;;;5059445;28;19917;-71
2022/11/26 04:57:11;;;;;;;;;;;7.20;97.90;;;;;;5090262;28;19969;-71
2022/11/26 04:59:37;;;;;;;;;;;7.20;97.90;;;;;;5088077;28;19908;-72
2022/11/26 05:02:02;;;;;;;;;;;7.20;97.90;;;;;;5070471;28;19918;-72
2022/11/26 05:04:28;;;;;;;;;;;7.20;97.80;;;;;;5070189;28;19912;-72
2022/11/26 05:06:54;;;;;;;;;;;7.20;97.80;;;;;;5069195;28;19936;-72
2022/11/26 05:09:19;;;;;;;;;;;7.20;97.80;;;;;;5054930;28;19967;-72
2022/11/26 05:11:45;;;;;;;;;;;7.20;97.90;;;;;;5089465;28;20040;-72
2022/11/26 05:14:10;;;;;;;;;;;7.20;97.80;;;;;;5090482;28;20435;-72
2022/11/26 05:16:36;;;;;;;;;;;7.20;97.80;;;;;;5090329;28;19912;-71
2022/11/26 05:19:01;;;;;;;;;;;7.20;97.80;;;;;;5090457;28;19962;-72
2022/11/26 05:21:29;;;;;;;;;;;7.20;97.80;;;;;;5077609;28;22017;-72
2022/11/26 05:23:54;;;;;;;;;;;7.20;97.80;;;;;;5069390;28;19996;-72
2022/11/26 05:26:20;;;;;;;;;;;7.20;97.80;;;;;;5086561;28;19916;-72
2022/11/26 05:28:45;;;;;;;;;;;7.20;97.80;;;;;;5090149;28;19920;-71
2022/11/26 05:31:10;;;;;;;;;;;7.20;97.80;;;;;;5074522;28;19974;-72
2022/11/26 05:33:36;;;;;;;;;;;7.20;97.80;;;;;;5069802;28;20517;-72
2022/11/26 05:36:02;;;;;;;;;;;7.20;97.80;;;;;;5069880;28;19919;-72
2022/11/26 05:38:27;;;;;;;;;;;7.20;97.80;;;;;;5060447;28;19909;-72
2022/11/26 05:40:53;;;;;;;;;;;7.20;97.90;;;;;;5049086;28;19971;-72
2022/11/26 05:43:18;;;;;;;;;;;7.20;97.90;;;;;;5058523;28;19961;-71
2022/11/26 05:45:44;;;;;;;;;;;7.10;97.80;;;;;;5069576;28;19961;-72
2022/11/26 05:48:10;;;;;;;;;;;7.10;97.80;;;;;;5069548;28;19918;-72
2022/11/26 05:50:35;;;;;;;;;;;7.10;97.80;;;;;;5068916;28;19916;-71
2022/11/26 05:53:01;;;;;;;;;;;7.10;97.80;;;;;;5069510;28;19987;-71
2022/11/26 05:55:26;;;;;;;;;;;7.10;97.80;;;;;;5078470;28;19912;-72
2022/11/26 05:57:52;;;;;;;;;;;7.10;97.80;;;;;;5089700;28;19999;-72
2022/11/26 06:00:18;;;;;;;;;;;7.10;97.80;;;;;;5087016;28;19912;-72
2022/11/26 06:02:43;;;;;;;;;;;7.10;97.80;;;;;;5074526;28;19943;-72
2022/11/26 06:05:09;;;;;;;;;;;7.10;97.80;;;;;;5069537;28;19943;-72
2022/11/26 06:07:35;;;;;;;;;;;7.10;97.80;;;;;;5067928;28;20006;-73
2022/11/26 06:10:00;;;;;;;;;;;7.10;97.80;;;;;;5068632;28;19916;-71
2022/11/26 06:12:26;;;;;;;;;;;7.10;97.80;;;;;;5069532;28;20495;-72
2022/11/26 06:14:52;;;;;;;;;;;7.10;97.90;;;;;;5069232;28;19916;-72
2022/11/26 06:17:17;;;;;;;;;;;7.10;97.90;;;;;;5068876;28;19935;-72
2022/11/26 06:19:43;;;;;;;;;;;7.10;97.80;;;;;;5068903;28;19958;-72
2022/11/26 06:22:08;;;;;;;;;;;7.10;97.80;;;;;;5069135;28;19917;-72
2022/11/26 06:24:34;;;;;;;;;;;7.10;97.80;;;;;;5071095;28;20388;-71
2022/11/26 06:26:59;;;;;;;;;;;7.10;97.80;;;;;;5089183;28;20019;-71
2022/11/26 06:29:25;;;;;;;;;;;7.10;97.80;;;;;;5088053;28;19963;-71
2022/11/26 06:31:50;;;;;;;;;;;7.10;97.80;;;;;;5068903;28;19940;-72
2022/11/26 06:34:16;;;;;;;;;;;7.00;97.80;;;;;;5083170;28;19916;-72
2022/11/26 06:36:42;;;;;;;;;;;7.00;97.80;;;;;;5088679;28;19942;-72
2022/11/26 06:39:08;;;;;;;;;;;7.00;97.80;;;;;;5073606;28;19912;-72
2022/11/26 06:41:33;;;;;;;;;;;7.00;97.80;;;;;;5068257;28;19913;-71
2022/11/26 06:43:59;;;;;;;;;;;7.10;97.90;;;;;;5068335;28;19954;-72
2022/11/26 06:46:24;;;;;;;;;;;7.00;97.80;;;;;;5068618;28;19995;-72
2022/11/26 06:48:50;;;;;;;;;;;7.00;97.80;;;;;;5066845;28;20282;-71
2022/11/26 06:51:16;;;;;;;;;;;7.00;97.90;;;;;;5069516;28;20513;-72
2022/11/26 06:53:41;;;;;;;;;;;7.00;97.80;;;;;;5066867;28;20431;-71
2022/11/26 06:56:10;;;;;;;;;;;7.00;97.80;;;;;;5083656;28;19908;-71
2022/11/26 06:58:36;;;;;;;;;;;7.00;97.80;;;;;;5088449;28;19918;-72
2022/11/26 07:01:09;;;;;;;;;;;7.00;97.80;;;;;;5074131;28;20023;-71
2022/11/26 07:03:34;;;;;;;;;;;7.00;97.80;;;;;;5068485;28;19912;-71
2022/11/26 07:05:59;;;;;;;;;;;7.00;97.80;;;;;;5068869;28;20542;-72
2022/11/26 07:08:25;;;;;;;;;;;7.00;97.80;;;;;;5064734;28;19920;-72
2022/11/26 07:10:50;;;;;;;;;;;7.00;97.80;;;;;;5079800;28;19924;-72
2022/11/26 07:13:16;;;;;;;;;;;7.00;97.80;;;;;;5047981;28;19912;-72
2022/11/26 07:15:41;;;;;;;;;;;7.00;97.80;;;;;;5047750;28;19913;-72
2022/11/26 07:18:07;;;;;;;;;;;7.00;97.80;;;;;;5047943;28;19920;-72
2022/11/26 07:20:34;;;;;;;;;;;7.00;97.80;;;;;;5060523;28;19919;-72
2022/11/26 07:23:01;;;;;;;;;;;7.00;97.80;;;;;;5067556;28;19917;-72
2022/11/26 07:25:28;;;;;;;;;;;7.00;97.80;;;;;;5077090;28;19916;-72
2022/11/26 07:27:54;;;;;;;;;;;7.00;97.80;;;;;;5087695;28;19912;-72
2022/11/26 07:30:19;;;;;;;;;;;6.90;97.80;;;;;;5079299;28;19916;-72
2022/11/26 07:32:45;;;;;;;;;;;6.90;97.80;;;;;;5065604;28;19959;-72
2022/11/26 07:35:10;;;;;;;;;;;6.90;97.80;;;;;;5067353;28;19920;-71
2022/11/26 07:37:35;;;;;;;;;;;6.90;97.80;;;;;;5066782;28;20123;-72
2022/11/26 07:40:01;;;;;;;;;;;6.90;97.80;;;;;;5063647;28;20143;-72
2022/11/26 07:42:29;;;;;;;;;;;6.90;97.80;;;;;;5067378;28;19944;-72
2022/11/26 07:44:54;;;;;;;;;;;6.90;97.80;;;;;;5066640;28;19961;-72
2022/11/26 07:47:20;;;;;;;;;;;6.90;97.80;;;;;;5067295;28;19940;-72
2022/11/26 07:49:45;;;;;;;;;;;6.90;97.80;;;;;;5078111;28;19951;-72
2022/11/26 07:52:11;;;;;;;;;;;6.90;97.70;;;;;;5087756;28;19912;-72
2022/11/26 07:54:37;;;;;;;;;;;6.90;97.70;;;;;;5062996;28;19971;-71
2022/11/26 07:57:02;;;;;;;;;;;6.90;97.70;;;;;;5087293;28;19916;-72
2022/11/26 07:59:28;;;;;;;;;;;7.00;97.70;;;;;;5086190;28;19912;-72
2022/11/26 08:01:53;;;;;;;;;;;6.90;97.70;;;;;;5067316;28;19962;-72
2022/11/26 08:04:19;;;;;;;;;;;7.00;97.70;;;;;;5067516;28;19989;-72
2022/11/26 08:06:44;;;;;;;;;;;7.00;97.70;;;;;;5067165;28;19925;-71
2022/11/26 08:09:10;;;;;;;;;;;7.00;97.70;;;;;;5053208;28;20614;-72
2022/11/26 08:11:35;;;;;;;;;;;7.00;97.70;;;;;;5051024;28;19927;-72
2022/11/26 08:14:02;;;;;;;;;;;7.00;97.70;;;;;;5066729;28;19913;-72
2022/11/26 08:16:28;;;;;;;;;;;7.00;97.70;;;;;;5067016;28;19963;-71
2022/11/26 08:18:53;;;;;;;;;;;7.00;97.60;;;;;;5065107;28;19952;-71
2022/11/26 08:21:19;;;;;;;;;;;7.00;97.60;;;;;;5066751;28;19916;-72
2022/11/26 08:23:45;;;;;;;;;;;7.00;97.70;;;;;;5067086;28;19912;-72
2022/11/26 08:26:11;;;;;;;;;;;7.00;97.60;;;;;;5081812;28;19919;-72
2022/11/26 08:28:37;;;;;;;;;;;7.00;97.70;;;;;;5086776;28;20686;-72
2022/11/26 08:31:03;;;;;;;;;;;7.00;97.70;;;;;;5071899;28;19912;-72
2022/11/26 08:33:29;;;;;;;;;;;7.00;97.60;;;;;;5066753;28;20309;-72
2022/11/26 08:35:54;;;;;;;;;;;7.00;97.60;;;;;;5066469;28;19921;-72
2022/11/26 08:38:20;;;;;;;;;;;7.10;97.70;;;;;;5065160;28;19920;-72
2022/11/26 08:40:45;;;;;;;;;;;7.10;97.70;;;;;;5065428;28;19912;-71
2022/11/26 08:43:11;;;;;;;;;;;7.00;97.70;;;;;;5065663;28;19916;-72
2022/11/26 08:45:36;;;;;;;;;;;7.10;97.70;;;;;;5066268;28;20036;-71
2022/11/26 08:48:02;;;;;;;;;;;7.10;97.70;;;;;;5065300;28;20280;-72
2022/11/26 08:50:27;;;;;;;;;;;7.10;97.70;;;;;;5066251;28;19916;-72
2022/11/26 08:52:53;;;;;;;;;;;7.10;97.70;;;;;;5066293;28;19939;-71
2022/11/26 08:55:18;;;;;;;;;;;7.10;97.70;;;;;;5075022;28;20467;-71
2022/11/26 08:57:45;;;;;;;;;;;7.10;97.60;;;;;;5085936;28;19916;-73
2022/11/26 09:00:11;;;;;;;;;;;7.10;97.70;;;;;;5078770;28;19916;-72
2022/11/26 09:02:36;;;;;;;;;;;7.10;97.70;;;;;;5066302;28;19912;-71
2022/11/26 09:05:02;;;;;;;;;;;7.10;97.70;;;;;;5061163;28;19920;-72
2022/11/26 09:07:28;;;;;;;;;;;7.10;97.70;;;;;;5064992;28;19919;-73
2022/11/26 09:09:53;;;;;;;;;;;7.20;97.70;;;;;;5065630;28;19918;-72
2022/11/26 09:12:19;;;;;;;;;;;7.20;97.70;;;;;;5066145;28;19973;-72
2022/11/26 09:14:44;;;;;;;;;;;7.20;97.70;;;;;;5064639;28;19959;-72
2022/11/26 09:17:10;;;;;;;;;;;7.20;97.70;;;;;;5085972;28;20528;-72
2022/11/26 09:19:36;;;;;;;;;;;7.20;97.70;;;;;;5086123;28;20024;-72
2022/11/26 09:22:02;;;;;;;;;;;7.20;97.70;;;;;;5085876;28;20669;-73
2022/11/26 09:24:27;;;;;;;;;;;7.20;97.70;;;;;;5059645;28;20007;-72
2022/11/26 09:26:53;;;;;;;;;;;7.20;97.60;;;;;;5064687;28;20019;-72
2022/11/26 09:29:19;;;;;;;;;;;7.20;97.60;;;;;;5066107;28;20594;-72
2022/11/26 09:31:46;;;;;;;;;;;7.20;97.60;;;;;;5067838;28;19924;-72
2022/11/26 09:34:11;;;;;;;;;;;7.20;97.70;;;;;;5069626;28;19947;-71
2022/11/26 09:36:37;;;;;;;;;;;7.30;97.60;;;;;;5068711;28;20425;-72
2022/11/26 09:39:03;;;;;;;;;;;7.30;97.70;;;;;;5066615;28;19920;-72
2022/11/26 09:41:47;;;;;;;;;;;7.30;97.60;;;;;;5068521;28;20515;-72
2022/11/26 09:44:18;;;;;;;;;;;7.30;97.60;;;;;;5067129;28;19916;-72
2022/11/26 09:46:47;;;;;;;;;;;7.30;97.70;;;;;;5069466;28;20336;-72
2022/11/26 09:49:14;;;;;;;;;;;7.30;97.60;;;;;;5069699;28;19931;-72
2022/11/26 09:51:41;;;;;;;;;;;7.30;97.60;;;;;;5089608;28;19999;-72
2022/11/26 09:54:09;;;;;;;;;;;7.30;97.70;;;;;;5067687;28;20565;-71
2022/11/26 09:56:35;;;;;;;;;;;7.40;97.70;;;;;;5086638;28;19916;-72
2022/11/26 09:59:04;;;;;;;;;;;7.40;97.70;;;;;;5089274;28;19944;-72
2022/11/26 10:01:31;;;;;;;;;;;7.40;97.70;;;;;;5071073;28;19915;-72
2022/11/26 10:03:57;;;;;;;;;;;7.40;97.60;;;;;;5069227;28;20327;-71
2022/11/26 10:06:58;;;;;;;;;;;7.40;97.60;;;;;;5069066;28;19912;-72
2022/11/26 10:09:29;;;;;;;;;;;7.50;97.60;;;;;;5078274;28;19947;-72
2022/11/26 10:11:54;;;;;;;;;;;7.50;97.60;;;;;;5047103;28;19920;-71
2022/11/26 10:14:47;;;;;;;;;;;7.50;97.60;;;;;;5049108;28;19912;-72
2022/11/26 10:17:12;;;;;;;;;;;7.50;97.60;;;;;;5048999;28;20572;-72
2022/11/26 10:19:52;;;;;;;;;;;7.50;97.70;;;;;;5048507;28;19909;-72
2022/11/26 10:22:23;;;;;;;;;;;7.60;97.70;;;;;;5084994;28;20025;-72
2022/11/26 10:24:49;;;;;;;;;;;7.60;97.60;;;;;;5062245;28;19918;-72
2022/11/26 10:27:17;;;;;;;;;;;7.60;97.50;;;;;;5076263;28;19920;-72
2022/11/26 10:29:47;;;;;;;;;;;7.60;97.40;;;;;;5068084;28;19942;-73
2022/11/26 10:32:14;;;;;;;;;;;7.70;97.50;;;;;;5068434;28;19958;-75
2022/11/26 10:34:43;;;;;;;;;;;7.70;97.50;;;;;;5068099;28;19993;-75
2022/11/26 10:37:08;;;;;;;;;;;7.70;97.70;;;;;;5068369;28;20665;-75
2022/11/26 10:39:34;;;;;;;;;;;7.70;97.40;;;;;;5071207;28;19981;-76
2022/11/26 10:42:03;;;;;;;;;;;7.80;97.40;;;;;;5087798;28;19912;-76
2022/11/26 10:44:38;;;;;;;;;;;7.80;97.30;;;;;;5070204;28;19950;-75
2022/11/26 10:47:16;;;;;;;;;;;7.80;97.50;;;;;;5066536;28;20720;-75
2022/11/26 10:49:42;;;;;;;;;;;7.80;97.40;;;;;;5066457;28;19920;-75
2022/11/26 10:52:08;;;;;;;;;;;7.90;97.40;;;;;;5068340;28;19915;-75
2022/11/26 10:54:34;;;;;;;;;;;7.90;97.60;;;;;;5078254;28;20030;-75
2022/11/26 10:57:10;;;;;;;;;;;7.90;97.40;;;;;;5088353;28;19959;-74
2022/11/26 10:59:44;;;;;;;;;;;8.00;97.40;;;;;;5086012;28;19912;-75
2022/11/26 11:02:18;;;;;;;;;;;8.00;97.40;;;;;;5068297;28;19999;-74
2022/11/26 11:04:44;;;;;;;;;;;8.00;97.30;;;;;;5067788;28;19912;-75
2022/11/26 11:07:28;;;;;;;;;;;8.10;97.30;;;;;;5068046;28;19917;-75
2022/11/26 11:10:03;;;;;;;;;;;8.10;97.20;;;;;;5050901;28;19916;-75
2022/11/26 11:12:28;;;;;;;;;;;8.20;97.10;;;;;;5067538;28;19921;-75
2022/11/26 11:14:54;;;;;;;;;;;8.20;97.00;;;;;;5067170;28;19919;-75
2022/11/26 11:17:33;;;;;;;;;;;8.30;97.10;;;;;;5067566;28;19923;-75
2022/11/26 11:20:10;;;;;;;;;;;8.30;97.00;;;;;;5067397;28;20281;-75
2022/11/26 11:22:35;;;;;;;;;;;8.30;97.10;;;;;;5067839;28;19913;-75
2022/11/26 11:25:01;;;;;;;;;;;8.40;97.20;;;;;;5073493;28;20003;-75
2022/11/26 11:27:31;;;;;;;;;;;8.40;97.30;;;;;;5082144;28;19919;-75
2022/11/26 11:30:00;;;;;;;;;;;8.40;97.00;;;;;;5066918;28;19981;-75
2022/11/26 11:32:37;;;;;;;;;;;8.50;96.90;;;;;;5067408;28;19962;-75
2022/11/26 11:35:19;;;;;;;;;;;8.50;97.20;;;;;;5078349;28;19921;-75
2022/11/26 11:37:52;;;;;;;;;;;8.50;97.10;;;;;;5085668;28;19919;-75
2022/11/26 11:40:23;;;;;;;;;;;8.50;96.90;;;;;;5066802;28;19909;-75
2022/11/26 11:43:00;;;;;;;;;;;8.50;97.00;;;;;;5067244;28;19916;-75
2022/11/26 11:45:33;;;;;;;;;;;8.60;97.10;;;;;;5083173;28;19917;-75
2022/11/26 11:48:05;;;;;;;;;;;8.60;97.10;;;;;;5069387;28;20320;-75
2022/11/26 11:50:34;;;;;;;;;;;8.70;97.00;;;;;;5066169;28;19916;-75
2022/11/26 11:52:59;;;;;;;;;;;8.70;97.00;;;;;;5063097;28;19923;-75
2022/11/26 11:55:31;;;;;;;;;;;8.70;97.10;;;;;;5067032;28;20514;-75
2022/11/26 11:58:14;;;;;;;;;;;8.70;97.20;;;;;;5064213;28;19962;-75
2022/11/26 12:00:45;;;;;;;;;;;8.80;97.10;;;;;;5064190;28;19944;-75
2022/11/26 12:03:23;;;;;;;;;;;8.80;97.00;;;;;;5067110;28;20358;-75
2022/11/26 12:05:54;;;;;;;;;;;8.80;96.90;;;;;;5065139;28;20078;-75
2022/11/26 12:08:20;;;;;;;;;;;8.80;97.00;;;;;;5063426;28;20416;-75
2022/11/26 12:10:52;;;;;;;;;;;8.80;97.20;;;;;;5065934;28;19938;-76
2022/11/26 12:13:19;;;;;;;;;;;8.90;97.00;;;;;;5064748;28;19920;-75
2022/11/26 12:15:53;;;;;;;;;;;8.90;97.00;;;;;;5064623;28;19913;-75
2022/11/26 12:18:21;;;;;;;;;;;8.90;97.10;;;;;;5066379;28;19920;-75
2022/11/26 12:20:49;;;;;;;;;;;9.00;97.10;;;;;;5066203;28;19913;-75
2022/11/26 12:23:27;;;;;;;;;;;8.90;97.00;;;;;;5063458;28;19924;-75
2022/11/26 12:26:11;;;;;;;;;;;9.00;97.00;;;;;;5072359;28;19955;-76
2022/11/26 12:28:39;;;;;;;;;;;9.00;97.20;;;;;;5065951;28;19953;-76
2022/11/26 12:31:18;;;;;;;;;;;9.00;96.90;;;;;;5064083;28;20559;-75
2022/11/26 12:33:47;;;;;;;;;;;9.00;97.20;;;;;;5064338;28;19999;-75
2022/11/26 12:36:16;;;;;;;;;;;9.00;97.00;;;;;;5066065;28;19913;-75
2022/11/26 12:39:02;;;;;;;;;;;9.00;96.90;;;;;;5064265;28;20465;-75
2022/11/26 12:41:33;;;;;;;;;;;9.10;97.10;;;;;;5065349;28;19912;-75
2022/11/26 12:43:59;;;;;;;;;;;9.10;97.00;;;;;;5078027;28;19912;-75
2022/11/26 12:46:38;;;;;;;;;;;9.10;97.00;;;;;;5073859;28;19916;-75
2022/11/26 12:49:15;;;;;;;;;;;9.10;96.90;;;;;;5065600;28;20613;-76
2022/11/26 12:51:41;;;;;;;;;;;9.10;96.90;;;;;;5065461;28;19912;-76
2022/11/26 12:54:25;;;;;;;;;;;9.20;97.00;;;;;;5065810;28;20357;-75
2022/11/26 12:57:09;;;;;;;;;;;9.20;97.00;;;;;;5065423;28;20564;-76
2022/11/26 12:59:39;;;;;;;;;;;9.20;97.00;;;;;;5068093;28;19916;-74
2022/11/26 13:02:16;;;;;;;;;;;9.20;97.10;;;;;;5085449;28;19959;-74
2022/11/26 13:04:42;;;;;;;;;;;9.20;96.90;;;;;;5087120;28;19926;-74
2022/11/26 13:07:16;;;;;;;;;;;9.20;96.80;;;;;;5089780;28;19908;-74
2022/11/26 13:09:56;;;;;;;;;;;9.20;96.90;;;;;;5070425;28;19921;-74
2022/11/26 13:12:24;;;;;;;;;;;9.20;97.00;;;;;;5068775;28;19928;-75
2022/11/26 13:14:56;;;;;;;;;;;9.20;96.90;;;;;;5067242;28;19997;-74
2022/11/26 13:17:40;;;;;;;;;;;9.20;97.00;;;;;;5070106;28;19917;-73
2022/11/26 13:20:06;;;;;;;;;;;9.30;97.10;;;;;;5072540;28;19927;-73
2022/11/26 13:22:43;;;;;;;;;;;9.20;97.00;;;;;;5085468;28;20412;-73
2022/11/26 13:25:12;;;;;;;;;;;9.30;97.00;;;;;;5067810;28;20301;-73
2022/11/26 13:28:00;;;;;;;;;;;9.30;97.00;;;;;;5068534;28;19912;-73
2022/11/26 13:30:44;;;;;;;;;;;9.30;97.10;;;;;;5068227;28;20011;-74
2022/11/26 13:33:09;;;;;;;;;;;9.30;97.10;;;;;;5066801;28;20008;-73
2022/11/26 13:35:56;;;;;;;;;;;9.30;97.00;;;;;;5068524;28;20006;-73
2022/11/26 13:38:39;;;;;;;;;;;9.30;97.10;;;;;;5067808;28;20560;-73
2022/11/26 13:41:24;;;;;;;;;;;9.20;97.10;;;;;;5065098;28;19917;-73
2022/11/26 13:44:00;;;;;;;;;;;9.30;97.10;;;;;;5066158;28;20022;-73
2022/11/26 13:46:29;;;;;;;;;;;9.30;97.20;;;;;;5065969;28;19918;-73
2022/11/26 13:48:55;;;;;;;;;;;9.20;97.10;;;;;;5069806;28;20578;-73
2022/11/26 13:51:29;;;;;;;;;;;9.20;97.10;;;;;;5068490;28;19962;-73
2022/11/26 13:53:58;;;;;;;;;;;9.30;97.10;;;;;;5068520;28;19946;-73
2022/11/26 13:56:25;;;;;;;;;;;9.30;97.10;;;;;;5085902;28;20357;-73
2022/11/26 13:59:03;;;;;;;;;;;9.30;97.10;;;;;;5087855;28;20397;-73
2022/11/26 14:01:40;;;;;;;;;;;9.30;97.20;;;;;;5066548;28;20013;-73
2022/11/26 14:04:07;;;;;;;;;;;9.30;97.20;;;;;;5068134;28;19912;-73
2022/11/26 14:06:33;;;;;;;;;;;9.30;97.20;;;;;;5065080;28;19974;-73
2022/11/26 14:08:59;;;;;;;;;;;9.30;97.10;;;;;;5067934;28;19998;-73
2022/11/26 14:11:39;;;;;;;;;;;9.30;97.10;;;;;;5066544;28;20447;-73
2022/11/26 14:14:26;;;;;;;;;;;9.30;97.10;;;;;;5065537;28;19920;-73
2022/11/26 14:17:00;;;;;;;;;;;9.30;97.10;;;;;;5066719;28;19916;-73
2022/11/26 14:19:38;;;;;;;;;;;9.30;97.10;;;;;;5065891;28;19963;-74
2022/11/26 14:22:05;;;;;;;;;;;9.30;97.10;;;;;;5067826;28;19968;-73
2022/11/26 14:24:51;;;;;;;;;;;9.30;97.10;;;;;;5066029;28;20479;-74
2022/11/26 14:27:18;;;;;;;;;;;9.30;97.20;;;;;;5067711;28;19924;-73
2022/11/26 14:29:45;;;;;;;;;;;9.40;97.10;;;;;;5067510;28;20689;-73
2022/11/26 14:32:15;;;;;;;;;;;9.40;97.10;;;;;;5068010;28;20364;-73
2022/11/26 14:34:51;;;;;;;;;;;9.40;97.10;;;;;;5067742;28;19917;-73
2022/11/26 14:37:18;;;;;;;;;;;9.40;97.10;;;;;;5067013;28;20361;-73
2022/11/26 14:39:44;;;;;;;;;;;9.40;97.10;;;;;;5080683;28;19916;-73